createdAt,value
2019-04-22T00:02:57.534Z,100432.06
2019-04-22T00:08:19.724Z,100424.48
2019-04-22T00:13:37.526Z,100430.94
2019-04-22T00:18:52.996Z,100426.59
2019-04-22T00:23:39.232Z,100426.96
2019-04-22T00:28:43.915Z,100430.44
2019-04-22T00:33:48.098Z,100426.05
2019-04-22T00:38:58.711Z,100429.83
2019-04-22T00:44:02.593Z,100419.80
2019-04-22T00:49:52.740Z,100419.43
2019-04-22T00:54:10.303Z,100420.98
2019-04-22T00:59:12.917Z,100416.48
2019-04-22T01:04:31.565Z,100420.75
2019-04-22T01:09:24.503Z,100414.92
2019-04-22T01:14:29.727Z,100413.39
2019-04-22T01:19:38.734Z,100416.40
2019-04-22T01:24:38.836Z,100422.22
2019-04-22T01:29:34.961Z,100421.59
2019-04-22T01:34:40.447Z,100418.41
2019-04-22T01:40:06.574Z,100416.61
2019-04-22T01:45:06.990Z,100404.56
2019-04-22T01:50:12.281Z,100410.12
2019-04-22T01:55:18.930Z,100413.77
2019-04-22T02:00:14.136Z,100413.02
2019-04-22T02:05:24.546Z,100414.98
2019-04-22T02:10:40.341Z,100414.56
2019-04-22T02:15:43.730Z,100418.61
2019-04-22T02:20:43.084Z,100411.52
2019-04-22T02:25:59.315Z,100413.59
2019-04-22T02:41:26.214Z,100428.30
2019-04-22T02:51:23.022Z,100437.08
2019-04-22T02:56:39.928Z,100446.32
2019-04-22T03:11:50.025Z,100454.92
2019-04-22T03:21:54.604Z,100455.06
2019-04-22T03:27:00.853Z,100454.08
2019-04-22T03:32:32.160Z,100453.38
2019-04-22T03:42:11.626Z,100451.06
2019-04-22T03:47:29.111Z,100455.20
2019-04-22T03:52:24.698Z,100455.11
2019-04-22T04:02:52.348Z,100463.31
2019-04-22T04:17:56.983Z,100461.27
2019-04-22T04:23:07.999Z,100464.34
2019-04-22T04:33:21.174Z,100483.56
2019-04-22T04:38:11.678Z,100476.02
2019-04-22T04:48:34.435Z,100487.73
2019-04-22T04:53:33.581Z,100488.50
2019-04-22T05:03:52.301Z,100488.36
2019-04-22T05:19:00.038Z,100501.50
2019-04-22T05:24:02.442Z,100495.34
2019-04-22T05:29:05.516Z,100498.36
2019-04-22T05:34:08.544Z,100497.59
2019-04-22T05:39:14.223Z,100489.70
2019-04-22T05:44:36.146Z,100485.03
2019-04-22T05:49:23.875Z,100481.31
2019-04-22T05:54:35.179Z,100488.56
2019-04-22T05:59:39.722Z,100492.53
2019-04-22T06:04:48.426Z,100475.91
2019-04-22T06:09:43.491Z,100478.59
2019-04-22T06:14:54.111Z,100484.44
2019-04-22T06:19:57.520Z,100479.92
2019-04-22T06:25:27.600Z,100476.78
2019-04-22T06:30:10.767Z,100474.27
2019-04-22T06:35:23.679Z,100478.47
2019-04-22T06:40:27.489Z,100475.16
2019-04-22T06:45:32.367Z,100490.34
2019-04-22T06:50:40.561Z,100489.98
2019-04-22T06:55:41.271Z,100479.58
2019-04-22T07:00:43.309Z,100496.48
2019-04-22T07:05:47.566Z,100488.69
2019-04-22T07:10:50.415Z,100491.06
2019-04-22T07:21:06.132Z,100490.45
2019-04-22T07:26:08.215Z,100481.27
2019-04-22T07:31:17.456Z,100496.05
2019-04-22T07:36:38.188Z,100512.42
2019-04-22T07:41:28.794Z,100501.67
2019-04-22T07:46:33.567Z,100502.17
2019-04-22T07:51:41.102Z,100506.62
2019-04-22T07:56:48.738Z,100493.27
2019-04-22T08:02:04.799Z,100489.55
2019-04-22T08:06:58.938Z,100500.86
2019-04-22T08:11:59.520Z,100509.48
2019-04-22T08:17:14.172Z,100489.83
2019-04-22T08:22:12.489Z,100501.89
2019-04-22T08:27:17.366Z,100527.12
2019-04-22T08:32:26.348Z,100511.20
2019-04-22T08:42:42.942Z,100518.22
2019-04-22T08:47:36.156Z,100530.77
2019-04-22T08:52:40.656Z,100497.73
2019-04-22T09:02:54.016Z,100530.94
2019-04-22T09:08:01.460Z,100513.56
2019-04-22T09:18:16.059Z,100524.40
2019-04-22T09:23:14.803Z,100530.88
2019-04-22T09:28:24.556Z,100521.22
2019-04-22T09:33:27.255Z,100523.52
2019-04-22T09:43:40.754Z,100525.48
2019-04-22T09:48:48.825Z,100503.56
2019-04-22T09:53:54.800Z,100542.33
2019-04-22T09:58:58.881Z,100515.05
2019-04-22T10:14:05.556Z,100515.72
2019-04-22T10:19:12.044Z,100528.44
2019-04-22T10:24:18.664Z,100523.44
2019-04-22T10:29:32.422Z,100506.63
2019-04-22T10:34:16.766Z,100503.47
2019-04-22T10:39:10.576Z,100499.89
2019-04-22T10:44:15.317Z,100503.16
2019-04-22T10:49:20.310Z,100530.95
2019-04-22T10:54:25.260Z,100508.13
2019-04-22T10:59:29.019Z,100517.73
2019-04-22T11:04:32.626Z,100525.98
2019-04-22T11:09:47.656Z,100499.02
2019-04-22T11:14:43.286Z,100513.08
2019-04-22T11:19:47.895Z,100521.56
2019-04-22T11:24:52.897Z,100513.12
2019-04-22T11:29:57.396Z,100515.22
2019-04-22T11:35:01.710Z,100520.20
2019-04-22T11:40:18.958Z,100518.04
2019-04-22T11:45:13.606Z,100511.58
2019-04-22T11:50:17.737Z,100511.34
2019-04-22T11:55:22.529Z,100512.77
2019-04-22T12:00:27.919Z,100504.96
2019-04-22T12:05:32.226Z,100499.40
2019-04-22T12:10:44.122Z,100494.10
2019-04-22T12:15:42.713Z,100506.73
2019-04-22T12:20:47.482Z,100504.65
2019-04-22T12:25:58.037Z,100500.12
2019-04-22T12:30:57.388Z,100495.48
2019-04-22T12:36:02.358Z,100486.14
2019-04-22T12:41:09.896Z,100479.17
2019-04-22T12:46:12.158Z,100486.34
2019-04-22T12:51:15.776Z,100470.72
2019-04-22T12:56:19.687Z,100438.97
2019-04-22T13:01:24.680Z,100422.22
2019-04-22T13:06:30.313Z,100421.10
2019-04-22T13:11:36.408Z,100436.47
2019-04-22T13:16:40.727Z,100412.17
2019-04-22T13:21:44.843Z,100412.97
2019-04-22T13:26:48.836Z,100406.59
2019-04-22T13:31:53.132Z,100390.80
2019-04-22T13:36:56.949Z,100380.08
2019-04-22T13:42:05.630Z,100366.63
2019-04-22T13:47:24.072Z,100358.95
2019-04-22T13:57:32.553Z,100345.03
2019-04-22T14:02:26.732Z,100338.36
2019-04-22T14:07:30.714Z,100327.93
2019-04-22T14:12:34.943Z,100330.66
2019-04-22T14:17:39.061Z,100330.48
2019-04-22T14:22:44.300Z,100319.78
2019-04-22T14:27:56.562Z,100310.31
2019-04-22T14:32:54.095Z,100302.67
2019-04-22T14:37:58.493Z,100295.44
2019-04-22T14:43:25.206Z,100291.83
2019-04-22T14:48:35.688Z,100284.70
2019-04-22T14:53:35.269Z,100283.22
2019-04-22T14:58:19.287Z,100269.45
2019-04-22T15:03:23.839Z,100268.67
2019-04-22T15:08:28.864Z,100270.13
2019-04-22T15:13:33.558Z,100265.24
2019-04-22T15:18:55.672Z,100261.14
2019-04-22T15:24:02.411Z,100259.40
2019-04-22T15:29:07.201Z,100259.44
2019-04-22T15:34:12.303Z,100262.06
2019-04-22T15:39:17.265Z,100264.69
2019-04-22T15:44:21.959Z,100252.03
2019-04-22T15:49:25.843Z,100252.03
2019-04-22T15:54:29.855Z,100251.89
2019-04-22T15:59:49.346Z,100244.12
2019-04-22T16:04:38.940Z,100243.89
2019-04-22T16:09:43.505Z,100248.14
2019-04-22T16:14:53.040Z,100244.91
2019-04-22T16:19:53.299Z,100246.75
2019-04-22T16:25:15.396Z,100247.63
2019-04-22T16:30:19.276Z,100259.12
2019-04-22T16:35:22.870Z,100257.44
2019-04-22T16:40:26.972Z,100255.04
2019-04-22T16:45:31.636Z,100252.60
2019-04-22T16:50:38.275Z,100262.26
2019-04-22T16:55:41.035Z,100253.66
2019-04-22T17:00:46.938Z,100257.78
2019-04-22T17:05:52.177Z,100250.00
2019-04-22T17:10:57.686Z,100265.12
2019-04-22T17:16:02.320Z,100256.55
2019-04-22T17:21:08.461Z,100262.72
2019-04-22T17:26:12.567Z,100270.87
2019-04-22T17:31:16.545Z,100267.29
2019-04-22T17:36:20.541Z,100271.84
2019-04-22T17:41:38.843Z,100277.20
2019-04-22T17:46:48.652Z,100279.28
2019-04-22T17:57:24.001Z,100288.75
2019-04-22T18:02:25.196Z,100295.28
2019-04-22T18:07:44.483Z,100298.13
2019-04-22T18:12:45.576Z,100296.91
2019-04-22T18:17:45.009Z,100302.30
2019-04-22T18:22:41.750Z,100305.70
2019-04-22T18:28:03.845Z,100309.80
2019-04-22T18:32:55.629Z,100318.74
2019-04-22T18:38:15.427Z,100318.84
2019-04-22T18:43:11.912Z,100313.70
2019-04-22T18:48:08.740Z,100316.44
2019-04-22T18:53:30.091Z,100317.11
2019-04-22T18:58:24.634Z,100327.01
2019-04-22T19:03:22.667Z,100327.73
2019-04-22T19:08:43.315Z,100325.91
2019-04-22T19:14:02.302Z,100337.20
2019-04-22T19:19:18.427Z,100334.66
2019-04-22T19:24:03.143Z,100338.81
2019-04-22T19:29:05.611Z,100342.45
2019-04-22T19:34:12.630Z,100334.66
2019-04-22T19:39:12.127Z,100331.22
2019-04-22T19:44:29.189Z,100332.64
2019-04-22T19:49:38.326Z,100337.93
2019-04-22T19:54:38.980Z,100330.80
2019-04-22T19:59:42.578Z,100322.24
2019-04-22T20:05:05.912Z,100328.97
2019-04-22T20:10:05.302Z,100327.16
2019-04-22T20:15:10.046Z,100325.23
2019-04-22T20:20:23.137Z,100329.91
2019-04-22T20:25:27.237Z,100323.83
2019-04-22T20:30:34.553Z,100322.44
2019-04-22T20:35:43.490Z,100323.19
2019-04-22T20:40:42.660Z,100320.12
2019-04-22T20:45:51.147Z,100324.91
2019-04-22T20:50:59.297Z,100324.91
2019-04-22T20:56:04.317Z,100337.45
2019-04-22T21:01:05.054Z,100331.94
2019-04-22T21:06:14.859Z,100329.88
2019-04-22T21:11:24.850Z,100328.05
2019-04-22T21:16:32.845Z,100314.47
2019-04-22T21:21:37.999Z,100327.73
2019-04-22T21:26:43.767Z,100327.84
2019-04-22T21:31:51.161Z,100329.52
2019-04-22T21:37:06.211Z,100330.72
2019-04-22T21:41:58.716Z,100330.53
2019-04-22T21:47:14.926Z,100325.47
2019-04-22T21:52:16.941Z,100325.23
2019-04-22T21:57:24.135Z,100325.33
2019-04-22T22:07:17.225Z,100324.25
2019-04-22T22:12:46.005Z,100318.70
2019-04-22T22:17:42.899Z,100315.80
2019-04-22T22:22:52.198Z,100308.37
2019-04-22T22:27:47.658Z,100308.08
2019-04-22T22:33:04.117Z,100304.13
2019-04-22T22:38:05.465Z,100300.20
2019-04-22T22:42:52.977Z,100295.91
2019-04-22T22:48:24.091Z,100292.00
2019-04-22T22:53:32.694Z,100292.30
2019-04-22T22:58:27.514Z,100282.71
2019-04-22T23:03:46.006Z,100275.18
2019-04-22T23:08:38.190Z,100277.47
2019-04-22T23:13:44.335Z,100274.50
2019-04-22T23:18:28.018Z,100275.98
2019-04-22T23:23:51.159Z,100264.08
2019-04-22T23:28:50.932Z,100262.06
2019-04-22T23:34:01.479Z,100252.96
2019-04-22T23:39:10.848Z,100243.95
2019-04-22T23:49:12.874Z,100241.81
2019-04-22T23:54:23.956Z,100235.07
2019-04-22T23:59:41.364Z,100234.24
